sensor_id;sensor_type;location;lat;lon;timestamp;P1;durP1;ratioP1;P2;durP2;ratioP2
9924;SDS011;5001;51.674;7.868;2023-03-01T00:01:25;14.17;;;9.47;;
9924;SDS011;5001;51.674;7.868;2023-03-01T00:03:53;14.73;;;10.10;;
9924;SDS011;5001;51.674;7.868;2023-03-01T00:06:21;16.77;;;10.70;;
9924;SDS011;5001;51.674;7.868;2023-03-01T00:08:48;19.93;;;10.37;;
9924;SDS011;5001;51.674;7.868;2023-03-01T00:11:20;14.37;;;10.03;;
9924;SDS011;5001;51.674;7.868;2023-03-01T00:13:55;12.07;;;8.33;;
9924;SDS011;5001;51.674;7.868;2023-03-01T00:16:25;14.83;;;8.97;;
9924;SDS011;5001;51.674;7.868;2023-03-01T00:18:55;12.17;;;9.20;;
9924;SDS011;5001;51.674;7.868;2023-03-01T00:21:23;12.23;;;8.90;;
9924;SDS011;5001;51.674;7.868;2023-03-01T00:23:51;12.60;;;9.13;;
9924;SDS011;5001;51.674;7.868;2023-03-01T00:26:19;12.67;;;9.20;;
9924;SDS011;5001;51.674;7.868;2023-03-01T00:28:47;11.70;;;8.10;;
9924;SDS011;5001;51.674;7.868;2023-03-01T00:31:16;14.57;;;8.70;;
9924;SDS011;5001;51.674;7.868;2023-03-01T00:33:45;12.20;;;8.70;;
9924;SDS011;5001;51.674;7.868;2023-03-01T00:36:12;14.27;;;9.63;;
9924;SDS011;5001;51.674;7.868;2023-03-01T00:38:42;14.47;;;9.50;;
9924;SDS011;5001;51.674;7.868;2023-03-01T00:41:11;19.03;;;12.03;;
9924;SDS011;5001;51.674;7.868;2023-03-01T00:43:40;16.37;;;11.13;;
9924;SDS011;5001;51.674;7.868;2023-03-01T00:46:09;28.83;;;17.17;;
9924;SDS011;5001;51.674;7.868;2023-03-01T00:48:41;19.27;;;12.60;;
9924;SDS011;5001;51.674;7.868;2023-03-01T00:51:12;20.17;;;11.47;;
9924;SDS011;5001;51.674;7.868;2023-03-01T00:53:51;16.30;;;10.67;;
9924;SDS011;5001;51.674;7.868;2023-03-01T00:56:19;15.73;;;9.87;;
9924;SDS011;5001;51.674;7.868;2023-03-01T00:58:47;14.03;;;10.03;;
9924;SDS011;5001;51.674;7.868;2023-03-01T01:01:19;12.33;;;8.80;;
9924;SDS011;5001;51.674;7.868;2023-03-01T01:04:01;13.07;;;9.30;;
9924;SDS011;5001;51.674;7.868;2023-03-01T01:06:35;14.03;;;9.30;;
9924;SDS011;5001;51.674;7.868;2023-03-01T01:09:05;16.40;;;9.47;;
9924;SDS011;5001;51.674;7.868;2023-03-01T01:11:33;16.00;;;9.93;;
9924;SDS011;5001;51.674;7.868;2023-03-01T01:14:04;12.50;;;9.60;;
9924;SDS011;5001;51.674;7.868;2023-03-01T01:16:31;14.13;;;10.77;;
9924;SDS011;5001;51.674;7.868;2023-03-01T01:18:59;18.87;;;10.27;;
9924;SDS011;5001;51.674;7.868;2023-03-01T01:21:27;15.37;;;10.00;;
9924;SDS011;5001;51.674;7.868;2023-03-01T01:23:55;15.67;;;10.10;;
9924;SDS011;5001;51.674;7.868;2023-03-01T01:26:23;15.83;;;9.90;;
9924;SDS011;5001;51.674;7.868;2023-03-01T01:28:56;17.53;;;10.10;;
9924;SDS011;5001;51.674;7.868;2023-03-01T01:31:23;15.83;;;10.33;;
9924;SDS011;5001;51.674;7.868;2023-03-01T01:33:51;14.27;;;9.47;;
9924;SDS011;5001;51.674;7.868;2023-03-01T01:36:19;12.13;;;9.00;;
9924;SDS011;5001;51.674;7.868;2023-03-01T01:38:46;13.10;;;9.30;;
9924;SDS011;5001;51.674;7.868;2023-03-01T01:41:14;10.90;;;8.77;;
9924;SDS011;5001;51.674;7.868;2023-03-01T01:49:35;14.10;;;10.50;;
9924;SDS011;5001;51.674;7.868;2023-03-01T01:57:07;14.63;;;11.07;;
9924;SDS011;5001;51.674;7.868;2023-03-01T01:59:39;12.40;;;9.67;;
9924;SDS011;5001;51.674;7.868;2023-03-01T02:02:09;14.30;;;10.50;;
9924;SDS011;5001;51.674;7.868;2023-03-01T02:04:38;14.83;;;10.47;;
9924;SDS011;5001;51.674;7.868;2023-03-01T02:07:15;14.13;;;10.17;;
9924;SDS011;5001;51.674;7.868;2023-03-01T02:09:49;19.27;;;10.77;;
9924;SDS011;5001;51.674;7.868;2023-03-01T02:12:19;15.70;;;10.47;;
9924;SDS011;5001;51.674;7.868;2023-03-01T02:14:50;14.53;;;9.50;;
9924;SDS011;5001;51.674;7.868;2023-03-01T02:17:17;15.93;;;10.27;;
9924;SDS011;5001;51.674;7.868;2023-03-01T02:22:22;14.30;;;9.33;;
9924;SDS011;5001;51.674;7.868;2023-03-01T02:27:19;13.53;;;9.67;;
9924;SDS011;5001;51.674;7.868;2023-03-01T02:29:50;13.70;;;8.73;;
9924;SDS011;5001;51.674;7.868;2023-03-01T02:32:18;15.00;;;9.17;;
9924;SDS011;5001;51.674;7.868;2023-03-01T02:34:52;13.17;;;9.43;;
9924;SDS011;5001;51.674;7.868;2023-03-01T02:37:23;15.60;;;10.20;;
9924;SDS011;5001;51.674;7.868;2023-03-01T02:39:58;13.27;;;8.70;;
9924;SDS011;5001;51.674;7.868;2023-03-01T02:42:33;15.70;;;9.13;;
9924;SDS011;5001;51.674;7.868;2023-03-01T02:45:05;11.63;;;8.83;;
9924;SDS011;5001;51.674;7.868;2023-03-01T02:47:33;12.70;;;9.47;;
9924;SDS011;5001;51.674;7.868;2023-03-01T02:49:59;14.37;;;8.20;;
9924;SDS011;5001;51.674;7.868;2023-03-01T02:52:53;13.27;;;9.63;;
9924;SDS011;5001;51.674;7.868;2023-03-01T02:55:19;13.30;;;9.10;;
9924;SDS011;5001;51.674;7.868;2023-03-01T02:57:46;13.83;;;9.40;;
9924;SDS011;5001;51.674;7.868;2023-03-01T03:00:20;11.60;;;8.50;;
9924;SDS011;5001;51.674;7.868;2023-03-01T03:02:52;13.73;;;8.97;;
9924;SDS011;5001;51.674;7.868;2023-03-01T03:05:23;14.30;;;9.40;;
9924;SDS011;5001;51.674;7.868;2023-03-01T03:07:56;15.10;;;9.67;;
9924;SDS011;5001;51.674;7.868;2023-03-01T03:10:26;14.10;;;9.07;;
9924;SDS011;5001;51.674;7.868;2023-03-01T03:12:59;14.83;;;8.80;;
9924;SDS011;5001;51.674;7.868;2023-03-01T03:15:29;13.77;;;9.27;;
9924;SDS011;5001;51.674;7.868;2023-03-01T03:17:57;13.20;;;9.77;;
9924;SDS011;5001;51.674;7.868;2023-03-01T03:20:25;13.67;;;9.47;;
9924;SDS011;5001;51.674;7.868;2023-03-01T03:22:55;12.77;;;8.60;;
9924;SDS011;5001;51.674;7.868;2023-03-01T03:25:23;14.43;;;8.77;;
9924;SDS011;5001;51.674;7.868;2023-03-01T03:27:52;12.70;;;9.10;;
9924;SDS011;5001;51.674;7.868;2023-03-01T03:30:26;13.30;;;9.03;;
9924;SDS011;5001;51.674;7.868;2023-03-01T03:32:56;13.40;;;8.90;;
9924;SDS011;5001;51.674;7.868;2023-03-01T03:35:25;14.90;;;8.93;;
9924;SDS011;5001;51.674;7.868;2023-03-01T03:37:57;17.90;;;9.97;;
9924;SDS011;5001;51.674;7.868;2023-03-01T03:40:29;15.37;;;10.00;;
9924;SDS011;5001;51.674;7.868;2023-03-01T03:43:07;13.73;;;9.77;;
9924;SDS011;5001;51.674;7.868;2023-03-01T03:45:43;13.83;;;9.67;;
9924;SDS011;5001;51.674;7.868;2023-03-01T03:48:11;15.73;;;9.93;;
9924;SDS011;5001;51.674;7.868;2023-03-01T03:50:39;15.60;;;10.17;;
9924;SDS011;5001;51.674;7.868;2023-03-01T03:53:07;16.70;;;10.73;;
9924;SDS011;5001;51.674;7.868;2023-03-01T03:55:36;18.17;;;12.70;;
9924;SDS011;5001;51.674;7.868;2023-03-01T03:58:06;23.20;;;14.40;;
9924;SDS011;5001;51.674;7.868;2023-03-01T04:00:39;28.40;;;16.97;;
9924;SDS011;5001;51.674;7.868;2023-03-01T04:03:08;20.93;;;15.30;;
9924;SDS011;5001;51.674;7.868;2023-03-01T04:05:36;24.53;;;15.80;;
9924;SDS011;5001;51.674;7.868;2023-03-01T04:08:04;21.30;;;14.03;;
9924;SDS011;5001;51.674;7.868;2023-03-01T04:10:35;23.43;;;15.13;;
9924;SDS011;5001;51.674;7.868;2023-03-01T04:13:05;23.80;;;14.60;;
9924;SDS011;5001;51.674;7.868;2023-03-01T04:15:33;24.13;;;14.43;;
9924;SDS011;5001;51.674;7.868;2023-03-01T04:18:01;18.03;;;12.67;;
9924;SDS011;5001;51.674;7.868;2023-03-01T04:20:30;17.23;;;12.67;;
9924;SDS011;5001;51.674;7.868;2023-03-01T04:23:10;17.27;;;11.93;;
9924;SDS011;5001;51.674;7.868;2023-03-01T04:28:12;18.23;;;11.03;;
9924;SDS011;5001;51.674;7.868;2023-03-01T04:30:40;17.67;;;10.53;;
9924;SDS011;5001;51.674;7.868;2023-03-01T04:33:08;17.20;;;11.53;;
9924;SDS011;5001;51.674;7.868;2023-03-01T04:35:36;16.03;;;11.53;;
9924;SDS011;5001;51.674;7.868;2023-03-01T04:38:04;16.40;;;10.77;;
9924;SDS011;5001;51.674;7.868;2023-03-01T04:40:31;17.27;;;11.50;;
9924;SDS011;5001;51.674;7.868;2023-03-01T04:42:59;13.77;;;10.03;;
9924;SDS011;5001;51.674;7.868;2023-03-01T04:45:26;15.27;;;10.90;;
9924;SDS011;5001;51.674;7.868;2023-03-01T04:47:54;18.03;;;11.83;;
9924;SDS011;5001;51.674;7.868;2023-03-01T04:50:21;19.97;;;12.97;;
9924;SDS011;5001;51.674;7.868;2023-03-01T04:52:50;18.60;;;12.63;;
9924;SDS011;5001;51.674;7.868;2023-03-01T04:55:17;21.03;;;13.40;;
9924;SDS011;5001;51.674;7.868;2023-03-01T04:57:44;20.93;;;13.10;;
9924;SDS011;5001;51.674;7.868;2023-03-01T05:00:12;20.80;;;12.43;;
9924;SDS011;5001;51.674;7.868;2023-03-01T05:02:47;26.37;;;14.30;;
9924;SDS011;5001;51.674;7.868;2023-03-01T05:05:24;19.53;;;13.30;;
9924;SDS011;5001;51.674;7.868;2023-03-01T05:07:56;20.77;;;13.00;;
9924;SDS011;5001;51.674;7.868;2023-03-01T05:10:25;17.80;;;11.03;;
9924;SDS011;5001;51.674;7.868;2023-03-01T05:12:55;17.60;;;10.70;;
9924;SDS011;5001;51.674;7.868;2023-03-01T05:15:24;16.50;;;10.30;;
9924;SDS011;5001;51.674;7.868;2023-03-01T05:17:52;17.10;;;11.30;;
9924;SDS011;5001;51.674;7.868;2023-03-01T05:20:21;16.93;;;11.03;;
9924;SDS011;5001;51.674;7.868;2023-03-01T05:22:54;16.23;;;11.13;;
9924;SDS011;5001;51.674;7.868;2023-03-01T05:25:25;18.97;;;11.77;;
9924;SDS011;5001;51.674;7.868;2023-03-01T05:27:53;20.73;;;11.63;;
9924;SDS011;5001;51.674;7.868;2023-03-01T05:30:20;18.33;;;11.97;;
9924;SDS011;5001;51.674;7.868;2023-03-01T05:32:49;17.90;;;11.63;;
9924;SDS011;5001;51.674;7.868;2023-03-01T05:35:22;15.57;;;11.30;;
9924;SDS011;5001;51.674;7.868;2023-03-01T05:37:49;19.87;;;12.63;;
9924;SDS011;5001;51.674;7.868;2023-03-01T05:40:21;22.77;;;11.37;;
9924;SDS011;5001;51.674;7.868;2023-03-01T05:42:52;14.37;;;10.20;;
9924;SDS011;5001;51.674;7.868;2023-03-01T05:45:21;13.63;;;9.83;;
9924;SDS011;5001;51.674;7.868;2023-03-01T05:47:49;18.00;;;11.03;;
9924;SDS011;5001;51.674;7.868;2023-03-01T05:50:18;22.70;;;11.43;;
9924;SDS011;5001;51.674;7.868;2023-03-01T05:52:49;15.23;;;10.37;;
9924;SDS011;5001;51.674;7.868;2023-03-01T05:55:27;16.10;;;10.97;;
9924;SDS011;5001;51.674;7.868;2023-03-01T05:57:57;19.23;;;11.20;;
9924;SDS011;5001;51.674;7.868;2023-03-01T06:00:25;20.87;;;11.33;;
9924;SDS011;5001;51.674;7.868;2023-03-01T06:02:53;17.63;;;11.17;;
9924;SDS011;5001;51.674;7.868;2023-03-01T06:05:20;21.10;;;12.67;;
9924;SDS011;5001;51.674;7.868;2023-03-01T06:07:48;19.77;;;11.73;;
9924;SDS011;5001;51.674;7.868;2023-03-01T06:10:17;17.83;;;11.87;;
9924;SDS011;5001;51.674;7.868;2023-03-01T06:12:46;17.27;;;11.30;;
9924;SDS011;5001;51.674;7.868;2023-03-01T06:15:14;18.13;;;11.67;;
9924;SDS011;5001;51.674;7.868;2023-03-01T06:17:42;18.43;;;11.33;;
9924;SDS011;5001;51.674;7.868;2023-03-01T06:22:45;17.77;;;11.50;;
9924;SDS011;5001;51.674;7.868;2023-03-01T06:25:14;19.87;;;11.70;;
9924;SDS011;5001;51.674;7.868;2023-03-01T06:27:43;16.97;;;11.77;;
9924;SDS011;5001;51.674;7.868;2023-03-01T06:30:11;20.50;;;13.20;;
9924;SDS011;5001;51.674;7.868;2023-03-01T06:32:40;20.27;;;12.40;;
9924;SDS011;5001;51.674;7.868;2023-03-01T06:35:11;20.30;;;13.30;;
9924;SDS011;5001;51.674;7.868;2023-03-01T06:37:40;20.93;;;13.67;;
9924;SDS011;5001;51.674;7.868;2023-03-01T06:40:08;15.90;;;11.30;;
9924;SDS011;5001;51.674;7.868;2023-03-01T06:42:38;15.73;;;9.57;;
9924;SDS011;5001;51.674;7.868;2023-03-01T06:45:07;15.17;;;9.00;;
9924;SDS011;5001;51.674;7.868;2023-03-01T06:47:35;12.57;;;9.40;;
9924;SDS011;5001;51.674;7.868;2023-03-01T06:50:02;11.47;;;9.30;;
9924;SDS011;5001;51.674;7.868;2023-03-01T06:52:30;13.17;;;9.07;;
9924;SDS011;5001;51.674;7.868;2023-03-01T06:54:57;15.63;;;11.03;;
9924;SDS011;5001;51.674;7.868;2023-03-01T06:57:24;21.10;;;10.23;;
9924;SDS011;5001;51.674;7.868;2023-03-01T06:59:51;13.63;;;8.73;;
9924;SDS011;5001;51.674;7.868;2023-03-01T07:02:18;14.30;;;8.83;;
9924;SDS011;5001;51.674;7.868;2023-03-01T07:04:45;12.47;;;8.37;;
9924;SDS011;5001;51.674;7.868;2023-03-01T07:07:12;13.97;;;8.53;;
9924;SDS011;5001;51.674;7.868;2023-03-01T07:09:39;13.23;;;9.23;;
9924;SDS011;5001;51.674;7.868;2023-03-01T07:12:06;13.23;;;8.90;;
9924;SDS011;5001;51.674;7.868;2023-03-01T07:14:34;11.90;;;8.50;;
9924;SDS011;5001;51.674;7.868;2023-03-01T07:17:01;10.60;;;8.53;;
9924;SDS011;5001;51.674;7.868;2023-03-01T07:19:28;11.17;;;8.50;;
9924;SDS011;5001;51.674;7.868;2023-03-01T07:21:55;11.07;;;9.00;;
9924;SDS011;5001;51.674;7.868;2023-03-01T07:24:22;12.43;;;8.53;;
9924;SDS011;5001;51.674;7.868;2023-03-01T07:26:50;13.97;;;8.77;;
9924;SDS011;5001;51.674;7.868;2023-03-01T07:29:17;9.47;;;8.43;;
9924;SDS011;5001;51.674;7.868;2023-03-01T07:31:44;12.33;;;9.50;;
9924;SDS011;5001;51.674;7.868;2023-03-01T07:34:11;12.33;;;8.60;;
9924;SDS011;5001;51.674;7.868;2023-03-01T07:36:38;15.10;;;10.10;;
9924;SDS011;5001;51.674;7.868;2023-03-01T07:39:09;15.27;;;11.20;;
9924;SDS011;5001;51.674;7.868;2023-03-01T07:41:37;19.07;;;11.83;;
9924;SDS011;5001;51.674;7.868;2023-03-01T07:44:04;14.30;;;10.37;;
9924;SDS011;5001;51.674;7.868;2023-03-01T07:46:31;14.03;;;9.33;;
9924;SDS011;5001;51.674;7.868;2023-03-01T07:48:58;13.00;;;9.03;;
9924;SDS011;5001;51.674;7.868;2023-03-01T07:51:25;15.70;;;10.10;;
9924;SDS011;5001;51.674;7.868;2023-03-01T07:53:52;19.83;;;11.87;;
9924;SDS011;5001;51.674;7.868;2023-03-01T07:56:20;12.47;;;9.30;;
9924;SDS011;5001;51.674;7.868;2023-03-01T07:58:48;14.93;;;9.07;;
9924;SDS011;5001;51.674;7.868;2023-03-01T08:01:17;12.73;;;8.70;;
9924;SDS011;5001;51.674;7.868;2023-03-01T08:03:45;11.60;;;8.77;;
9924;SDS011;5001;51.674;7.868;2023-03-01T08:06:14;13.63;;;8.87;;
9924;SDS011;5001;51.674;7.868;2023-03-01T08:08:42;12.40;;;8.13;;
9924;SDS011;5001;51.674;7.868;2023-03-01T08:11:13;11.93;;;7.50;;
9924;SDS011;5001;51.674;7.868;2023-03-01T08:13:41;11.37;;;7.83;;
9924;SDS011;5001;51.674;7.868;2023-03-01T08:16:13;10.07;;;7.20;;
9924;SDS011;5001;51.674;7.868;2023-03-01T08:18:41;11.23;;;7.30;;
9924;SDS011;5001;51.674;7.868;2023-03-01T08:21:13;11.03;;;7.47;;
9924;SDS011;5001;51.674;7.868;2023-03-01T08:23:42;13.67;;;7.93;;
9924;SDS011;5001;51.674;7.868;2023-03-01T08:26:11;15.87;;;8.90;;
9924;SDS011;5001;51.674;7.868;2023-03-01T08:28:40;12.70;;;7.67;;
9924;SDS011;5001;51.674;7.868;2023-03-01T08:31:18;11.50;;;7.67;;
9924;SDS011;5001;51.674;7.868;2023-03-01T08:33:49;12.53;;;7.53;;
9924;SDS011;5001;51.674;7.868;2023-03-01T08:36:22;11.23;;;7.87;;
9924;SDS011;5001;51.674;7.868;2023-03-01T08:38:57;12.23;;;7.77;;
9924;SDS011;5001;51.674;7.868;2023-03-01T08:41:25;9.50;;;7.40;;
9924;SDS011;5001;51.674;7.868;2023-03-01T08:43:52;10.90;;;7.47;;
9924;SDS011;5001;51.674;7.868;2023-03-01T08:46:25;10.60;;;8.27;;
9924;SDS011;5001;51.674;7.868;2023-03-01T08:48:52;10.83;;;7.53;;
9924;SDS011;5001;51.674;7.868;2023-03-01T08:51:19;12.60;;;7.27;;
9924;SDS011;5001;51.674;7.868;2023-03-01T08:53:47;9.03;;;6.93;;
9924;SDS011;5001;51.674;7.868;2023-03-01T08:56:15;10.93;;;8.00;;
9924;SDS011;5001;51.674;7.868;2023-03-01T08:58:43;14.83;;;8.20;;
9924;SDS011;5001;51.674;7.868;2023-03-01T09:01:13;10.97;;;7.80;;
9924;SDS011;5001;51.674;7.868;2023-03-01T09:03:42;10.80;;;7.13;;
9924;SDS011;5001;51.674;7.868;2023-03-01T09:06:10;10.40;;;7.70;;
9924;SDS011;5001;51.674;7.868;2023-03-01T09:08:38;11.23;;;7.60;;
9924;SDS011;5001;51.674;7.868;2023-03-01T09:11:07;11.70;;;6.43;;
9924;SDS011;5001;51.674;7.868;2023-03-01T09:13:35;10.37;;;6.93;;
9924;SDS011;5001;51.674;7.868;2023-03-01T09:16:03;8.40;;;6.43;;
9924;SDS011;5001;51.674;7.868;2023-03-01T09:18:33;7.63;;;6.30;;
9924;SDS011;5001;51.674;7.868;2023-03-01T09:21:08;8.53;;;6.20;;
9924;SDS011;5001;51.674;7.868;2023-03-01T09:23:41;8.40;;;5.77;;
9924;SDS011;5001;51.674;7.868;2023-03-01T09:26:17;8.38;;;5.85;;
9924;SDS011;5001;51.674;7.868;2023-03-01T09:28:49;8.15;;;6.43;;
9924;SDS011;5001;51.674;7.868;2023-03-01T09:31:19;8.73;;;6.60;;
9924;SDS011;5001;51.674;7.868;2023-03-01T09:33:48;9.18;;;6.15;;
9924;SDS011;5001;51.674;7.868;2023-03-01T09:36:19;7.57;;;5.65;;
9924;SDS011;5001;51.674;7.868;2023-03-01T09:38:48;9.80;;;5.68;;
9924;SDS011;5001;51.674;7.868;2023-03-01T09:44:02;8.75;;;6.00;;
9924;SDS011;5001;51.674;7.868;2023-03-01T09:46:40;10.23;;;6.40;;
9924;SDS011;5001;51.674;7.868;2023-03-01T09:49:14;7.78;;;5.63;;
9924;SDS011;5001;51.674;7.868;2023-03-01T09:54:46;7.95;;;5.90;;
9924;SDS011;5001;51.674;7.868;2023-03-01T09:57:20;5.72;;;4.57;;
9924;SDS011;5001;51.674;7.868;2023-03-01T10:00:07;11.10;;;6.10;;
9924;SDS011;5001;51.674;7.868;2023-03-01T10:02:58;7.85;;;5.90;;
9924;SDS011;5001;51.674;7.868;2023-03-01T10:05:43;9.82;;;6.18;;
9924;SDS011;5001;51.674;7.868;2023-03-01T10:10:58;10.20;;;6.60;;
9924;SDS011;5001;51.674;7.868;2023-03-01T10:19:47;6.65;;;5.20;;
9924;SDS011;5001;51.674;7.868;2023-03-01T10:22:16;8.65;;;5.45;;
9924;SDS011;5001;51.674;7.868;2023-03-01T10:24:44;5.57;;;5.03;;
9924;SDS011;5001;51.674;7.868;2023-03-01T10:27:23;11.15;;;7.05;;
9924;SDS011;5001;51.674;7.868;2023-03-01T10:32:43;9.32;;;6.68;;
9924;SDS011;5001;51.674;7.868;2023-03-01T10:38:08;6.63;;;5.85;;
9924;SDS011;5001;51.674;7.868;2023-03-01T10:40:49;8.90;;;6.47;;
9924;SDS011;5001;51.674;7.868;2023-03-01T10:43:20;12.93;;;6.37;;
9924;SDS011;5001;51.674;7.868;2023-03-01T10:45:48;9.40;;;6.88;;
9924;SDS011;5001;51.674;7.868;2023-03-01T10:48:17;9.48;;;6.63;;
9924;SDS011;5001;51.674;7.868;2023-03-01T10:50:46;11.85;;;6.88;;
9924;SDS011;5001;51.674;7.868;2023-03-01T10:58:33;7.22;;;5.88;;
9924;SDS011;5001;51.674;7.868;2023-03-01T11:01:06;8.38;;;6.07;;
9924;SDS011;5001;51.674;7.868;2023-03-01T11:06:37;13.18;;;6.45;;
9924;SDS011;5001;51.674;7.868;2023-03-01T11:09:18;9.82;;;6.28;;
9924;SDS011;5001;51.674;7.868;2023-03-01T11:11:51;8.77;;;6.63;;
9924;SDS011;5001;51.674;7.868;2023-03-01T11:14:22;10.82;;;6.88;;
9924;SDS011;5001;51.674;7.868;2023-03-01T11:19:27;7.72;;;5.90;;
9924;SDS011;5001;51.674;7.868;2023-03-01T11:24:45;12.68;;;7.15;;
9924;SDS011;5001;51.674;7.868;2023-03-01T11:27:31;9.20;;;6.53;;
9924;SDS011;5001;51.674;7.868;2023-03-01T11:33:10;9.50;;;6.90;;
9924;SDS011;5001;51.674;7.868;2023-03-01T11:35:47;11.20;;;7.00;;
9924;SDS011;5001;51.674;7.868;2023-03-01T11:38:28;9.68;;;6.68;;
9924;SDS011;5001;51.674;7.868;2023-03-01T11:41:01;11.27;;;6.25;;
9924;SDS011;5001;51.674;7.868;2023-03-01T11:43:59;7.07;;;6.20;;
9924;SDS011;5001;51.674;7.868;2023-03-01T12:05:55;9.65;;;6.63;;
9924;SDS011;5001;51.674;7.868;2023-03-01T12:08:37;8.60;;;6.78;;
9924;SDS011;5001;51.674;7.868;2023-03-01T12:11:16;8.95;;;6.22;;
9924;SDS011;5001;51.674;7.868;2023-03-01T12:19:44;8.60;;;5.80;;
9924;SDS011;5001;51.674;7.868;2023-03-01T12:25:12;7.77;;;6.20;;
9924;SDS011;5001;51.674;7.868;2023-03-01T12:33:19;8.17;;;6.07;;
9924;SDS011;5001;51.674;7.868;2023-03-01T12:45:49;8.77;;;5.70;;
9924;SDS011;5001;51.674;7.868;2023-03-01T12:48:23;8.60;;;5.57;;
9924;SDS011;5001;51.674;7.868;2023-03-01T12:50:59;7.13;;;5.40;;
9924;SDS011;5001;51.674;7.868;2023-03-01T12:53:35;7.97;;;5.87;;
9924;SDS011;5001;51.674;7.868;2023-03-01T12:56:09;8.63;;;6.07;;
9924;SDS011;5001;51.674;7.868;2023-03-01T13:09:55;7.97;;;5.43;;
9924;SDS011;5001;51.674;7.868;2023-03-01T13:17:51;7.40;;;5.40;;
9924;SDS011;5001;51.674;7.868;2023-03-01T13:20:50;11.43;;;6.70;;
9924;SDS011;5001;51.674;7.868;2023-03-01T13:28:39;8.63;;;6.23;;
9924;SDS011;5001;51.674;7.868;2023-03-01T13:31:10;7.67;;;5.90;;
9924;SDS011;5001;51.674;7.868;2023-03-01T13:33:46;6.83;;;5.77;;
9924;SDS011;5001;51.674;7.868;2023-03-01T13:38:58;10.03;;;5.67;;
9924;SDS011;5001;51.674;7.868;2023-03-01T13:41:54;8.83;;;5.80;;
9924;SDS011;5001;51.674;7.868;2023-03-01T13:46:55;7.97;;;5.87;;
9924;SDS011;5001;51.674;7.868;2023-03-01T13:49:27;10.33;;;6.73;;
9924;SDS011;5001;51.674;7.868;2023-03-01T13:54:53;7.30;;;5.30;;
9924;SDS011;5001;51.674;7.868;2023-03-01T13:57:33;6.63;;;5.10;;
9924;SDS011;5001;51.674;7.868;2023-03-01T14:00:02;7.47;;;5.40;;
9924;SDS011;5001;51.674;7.868;2023-03-01T14:02:32;7.00;;;4.97;;
9924;SDS011;5001;51.674;7.868;2023-03-01T14:05:00;6.67;;;5.17;;
9924;SDS011;5001;51.674;7.868;2023-03-01T14:07:28;8.90;;;5.10;;
9924;SDS011;5001;51.674;7.868;2023-03-01T14:09:58;6.73;;;5.20;;
9924;SDS011;5001;51.674;7.868;2023-03-01T14:12:44;8.97;;;5.23;;
9924;SDS011;5001;51.674;7.868;2023-03-01T14:15:35;9.23;;;5.27;;
9924;SDS011;5001;51.674;7.868;2023-03-01T14:18:26;8.57;;;5.53;;
9924;SDS011;5001;51.674;7.868;2023-03-01T14:21:07;6.63;;;4.87;;
9924;SDS011;5001;51.674;7.868;2023-03-01T14:23:35;8.23;;;5.37;;
9924;SDS011;5001;51.674;7.868;2023-03-01T14:26:07;7.23;;;4.90;;
9924;SDS011;5001;51.674;7.868;2023-03-01T14:28:36;7.87;;;4.83;;
9924;SDS011;5001;51.674;7.868;2023-03-01T14:31:30;5.33;;;4.00;;
9924;SDS011;5001;51.674;7.868;2023-03-01T14:34:18;10.03;;;5.90;;
9924;SDS011;5001;51.674;7.868;2023-03-01T14:36:46;7.93;;;4.83;;
9924;SDS011;5001;51.674;7.868;2023-03-01T14:39:18;7.00;;;4.67;;
9924;SDS011;5001;51.674;7.868;2023-03-01T14:41:47;5.43;;;3.90;;
9924;SDS011;5001;51.674;7.868;2023-03-01T14:44:16;7.30;;;4.83;;
9924;SDS011;5001;51.674;7.868;2023-03-01T14:46:51;7.77;;;5.00;;
9924;SDS011;5001;51.674;7.868;2023-03-01T14:49:21;8.53;;;5.30;;
9924;SDS011;5001;51.674;7.868;2023-03-01T14:51:57;7.63;;;4.63;;
9924;SDS011;5001;51.674;7.868;2023-03-01T14:54:40;6.33;;;4.47;;
9924;SDS011;5001;51.674;7.868;2023-03-01T14:57:18;6.53;;;4.90;;
9924;SDS011;5001;51.674;7.868;2023-03-01T14:59:54;6.53;;;4.30;;
9924;SDS011;5001;51.674;7.868;2023-03-01T15:02:29;6.47;;;4.30;;
9924;SDS011;5001;51.674;7.868;2023-03-01T15:04:58;5.67;;;4.33;;
9924;SDS011;5001;51.674;7.868;2023-03-01T15:07:29;6.13;;;4.60;;
9924;SDS011;5001;51.674;7.868;2023-03-01T15:09:58;6.77;;;4.67;;
9924;SDS011;5001;51.674;7.868;2023-03-01T15:14:54;5.80;;;4.70;;
9924;SDS011;5001;51.674;7.868;2023-03-01T15:17:33;5.80;;;4.27;;
9924;SDS011;5001;51.674;7.868;2023-03-01T15:20:03;6.00;;;4.20;;
9924;SDS011;5001;51.674;7.868;2023-03-01T15:22:33;9.03;;;4.70;;
9924;SDS011;5001;51.674;7.868;2023-03-01T15:25:01;6.77;;;4.60;;
9924;SDS011;5001;51.674;7.868;2023-03-01T15:27:28;6.60;;;5.07;;
9924;SDS011;5001;51.674;7.868;2023-03-01T15:29:57;7.30;;;4.77;;
9924;SDS011;5001;51.674;7.868;2023-03-01T15:34:57;11.33;;;4.67;;
9924;SDS011;5001;51.674;7.868;2023-03-01T15:42:58;9.50;;;4.80;;
9924;SDS011;5001;51.674;7.868;2023-03-01T15:45:26;5.17;;;3.60;;
9924;SDS011;5001;51.674;7.868;2023-03-01T15:47:55;5.57;;;4.17;;
9924;SDS011;5001;51.674;7.868;2023-03-01T15:50:26;8.97;;;4.10;;
9924;SDS011;5001;51.674;7.868;2023-03-01T15:52:54;5.57;;;4.33;;
9924;SDS011;5001;51.674;7.868;2023-03-01T15:55:27;5.33;;;3.43;;
9924;SDS011;5001;51.674;7.868;2023-03-01T15:58:00;10.17;;;5.47;;
9924;SDS011;5001;51.674;7.868;2023-03-01T16:00:39;6.30;;;4.10;;
9924;SDS011;5001;51.674;7.868;2023-03-01T16:03:23;6.57;;;4.10;;
9924;SDS011;5001;51.674;7.868;2023-03-01T16:05:50;6.03;;;3.77;;
9924;SDS011;5001;51.674;7.868;2023-03-01T16:08:18;7.93;;;3.90;;
9924;SDS011;5001;51.674;7.868;2023-03-01T16:10:45;8.10;;;4.17;;
9924;SDS011;5001;51.674;7.868;2023-03-01T16:13:12;5.97;;;4.13;;
9924;SDS011;5001;51.674;7.868;2023-03-01T16:15:40;9.57;;;4.63;;
9924;SDS011;5001;51.674;7.868;2023-03-01T16:18:07;6.60;;;4.10;;
9924;SDS011;5001;51.674;7.868;2023-03-01T16:20:36;7.47;;;4.60;;
9924;SDS011;5001;51.674;7.868;2023-03-01T16:23:05;8.30;;;5.10;;
9924;SDS011;5001;51.674;7.868;2023-03-01T16:25:33;6.17;;;4.77;;
9924;SDS011;5001;51.674;7.868;2023-03-01T16:28:01;6.60;;;5.13;;
9924;SDS011;5001;51.674;7.868;2023-03-01T16:30:31;7.40;;;4.17;;
9924;SDS011;5001;51.674;7.868;2023-03-01T16:33:02;9.80;;;5.50;;
9924;SDS011;5001;51.674;7.868;2023-03-01T16:35:49;8.10;;;4.63;;
9924;SDS011;5001;51.674;7.868;2023-03-01T16:38:17;6.93;;;5.10;;
9924;SDS011;5001;51.674;7.868;2023-03-01T16:40:48;7.83;;;5.73;;
9924;SDS011;5001;51.674;7.868;2023-03-01T16:43:16;8.47;;;4.97;;
9924;SDS011;5001;51.674;7.868;2023-03-01T16:45:43;7.20;;;4.50;;
9924;SDS011;5001;51.674;7.868;2023-03-01T16:48:12;5.70;;;4.30;;
9924;SDS011;5001;51.674;7.868;2023-03-01T16:50:39;7.50;;;4.80;;
9924;SDS011;5001;51.674;7.868;2023-03-01T16:53:06;7.43;;;4.80;;
9924;SDS011;5001;51.674;7.868;2023-03-01T16:55:33;6.77;;;4.50;;
9924;SDS011;5001;51.674;7.868;2023-03-01T16:58:00;6.00;;;4.70;;
9924;SDS011;5001;51.674;7.868;2023-03-01T17:00:27;6.97;;;4.80;;
9924;SDS011;5001;51.674;7.868;2023-03-01T17:02:54;10.33;;;5.63;;
9924;SDS011;5001;51.674;7.868;2023-03-01T17:05:22;10.20;;;6.43;;
9924;SDS011;5001;51.674;7.868;2023-03-01T17:07:50;7.03;;;5.00;;
9924;SDS011;5001;51.674;7.868;2023-03-01T17:10:17;6.47;;;4.53;;
9924;SDS011;5001;51.674;7.868;2023-03-01T17:12:47;9.27;;;5.47;;
9924;SDS011;5001;51.674;7.868;2023-03-01T17:15:15;9.43;;;5.13;;
9924;SDS011;5001;51.674;7.868;2023-03-01T17:17:42;11.33;;;5.83;;
9924;SDS011;5001;51.674;7.868;2023-03-01T17:20:10;10.13;;;6.33;;
9924;SDS011;5001;51.674;7.868;2023-03-01T17:22:37;7.73;;;5.33;;
9924;SDS011;5001;51.674;7.868;2023-03-01T17:25:06;7.77;;;5.43;;
9924;SDS011;5001;51.674;7.868;2023-03-01T17:27:35;9.37;;;5.90;;
9924;SDS011;5001;51.674;7.868;2023-03-01T17:30:04;7.13;;;4.87;;
9924;SDS011;5001;51.674;7.868;2023-03-01T17:32:33;12.07;;;6.87;;
9924;SDS011;5001;51.674;7.868;2023-03-01T17:35:01;9.87;;;7.13;;
9924;SDS011;5001;51.674;7.868;2023-03-01T17:37:28;9.70;;;6.37;;
9924;SDS011;5001;51.674;7.868;2023-03-01T17:39:54;9.93;;;6.30;;
9924;SDS011;5001;51.674;7.868;2023-03-01T17:42:22;11.80;;;7.13;;
9924;SDS011;5001;51.674;7.868;2023-03-01T17:44:48;11.37;;;6.43;;
9924;SDS011;5001;51.674;7.868;2023-03-01T17:47:15;13.47;;;5.97;;